Weather at Delaware County Johnson Field

Public forecast

Using degrees Fahrenheit for public forecast. Weather courtesy of forecast.io.

Current aviation weather report (METAR) for Delaware County Johnson Field

Retrieved 2021/08/05 12:53 UTC (12 minutes ago):

KMIE 051253Z 00000KT 9SM CLR 20/15 A3017 RMK AO2 SLP207 T02000150

Closest aviation forecast (TAF) to Delaware County Johnson Field

Closest forecast is Grissom Air Reserve Base, 42.3 nm (78.3 km) NW. Retrieved 2021/08/05 13:06 UTC (0 seconds ago):

TAF KGUS 051300Z 0513/0619 VRB06KT 9999 FEW035 SCT050 QNH3000INS BECMG 0617/0618 21012KT 9999 FEW040 SCT055 BKN085 QNH3000INS TX30/0521Z TN16/0610Z